PWSweather.com
Personal Weather Stations
Station Observations
KMIEASTT1
Tawas Bay, East Tawas, MI 48730

Tawas BayEast Tawas, MI 48730

Lat: 44.28, Lon: -83.48

Elevation: 600

Station Type: Davis VantagePro

http://www.tawasbayweather.com

Latest ConditionsUpdated 10:00:13 PM EST Monday, Mar 2, 2015
Currently Today's Max Today's Min Today's Average
Temperature 21.0°F-6.1°C 29.3°F-1.5°C 13.9°F-10.1°C 22.7°F-5.2°C
Dew Point 8.9°F-12.8°C 19.4°F-7.0°C 8.3°F-13.2°C 12.5°F-10.8°C
Winds Calm Calm 11.0 mph WSW17.7 kmh WSW - 4.8 mph 7.7 kmh
Wind Gusts -- 16.0 mph25.7 kmh - -
Humidity 59% 90% 44% 66%
Pressure 30.41 in1029.8 mb 30.46 in1031.5 mb 30.20 in1022.7 mb -
Hour Temp Dew Point Humidity Winds Wind Gusts Pressure Precip Precip Rate Daily Precip Total
10:00 PM 21.0°F-6.1°C 8.9°F-12.8°C 59% Calm Calm -- 30.41 in1029.8 mb 0.00 in0.0 mm 0.00 in/hr0.0 mm/hr 0.00 in0.0 mm
09:45 PM 21.3°F-5.9°C 8.5°F-13.1°C 57% 1.0 mph WSW1.6 kmh WSW 2.0 mph3.2 kmh 30.41 in1029.8 mb 0.00 in0.0 mm 0.00 in/hr0.0 mm/hr 0.00 in0.0 mm
09:30 PM 21.8°F-5.7°C 9.7°F-12.4°C 59% Calm Calm -- 30.41 in1029.8 mb 0.00 in0.0 mm 0.00 in/hr0.0 mm/hr 0.00 in0.0 mm
09:15 PM 21.9°F-5.6°C 9.8°F-12.3°C 59% Calm Calm -- 30.41 in1029.8 mb 0.00 in0.0 mm 0.00 in/hr0.0 mm/hr 0.00 in0.0 mm
09:00 PM 22.7°F-5.2°C 9.4°F-12.6°C 56% Calm Calm -- 30.41 in1029.8 mb 0.00 in0.0 mm 0.00 in/hr0.0 mm/hr 0.00 in0.0 mm
08:45 PM 23.1°F-4.9°C 8.9°F-12.8°C 54% Calm Calm -- 30.41 in1029.8 mb 0.00 in0.0 mm 0.00 in/hr0.0 mm/hr 0.00 in0.0 mm
08:30 PM 22.9°F-5.1°C 9.6°F-12.4°C 56% Calm Calm -- 30.42 in1030.1 mb 0.00 in0.0 mm 0.00 in/hr0.0 mm/hr 0.00 in0.0 mm
08:15 PM 22.4°F-5.3°C 8.7°F-12.9°C 55% Calm Calm -- 30.42 in1030.1 mb 0.00 in0.0 mm 0.00 in/hr0.0 mm/hr 0.00 in0.0 mm
08:00 PM 24.3°F-4.3°C 9.2°F-12.7°C 52% Calm Calm -- 30.43 in1030.5 mb 0.00 in0.0 mm 0.00 in/hr0.0 mm/hr 0.00 in0.0 mm
07:45 PM 25.7°F-3.5°C 8.3°F-13.2°C 47% Calm Calm -- 30.43 in1030.5 mb 0.00 in0.0 mm 0.00 in/hr0.0 mm/hr 0.00 in0.0 mm
07:30 PM 25.5°F-3.6°C 8.6°F-13.0°C 48% Calm Calm -- 30.43 in1030.5 mb 0.00 in0.0 mm 0.00 in/hr0.0 mm/hr 0.00 in0.0 mm
07:15 PM 24.8°F-4.0°C 8.4°F-13.1°C 49% 1.0 mph WSW1.6 kmh WSW 1.0 mph1.6 kmh 30.43 in1030.5 mb 0.00 in0.0 mm 0.00 in/hr0.0 mm/hr 0.00 in0.0 mm
07:00 PM 23.7°F-4.6°C 8.7°F-12.9°C 52% 1.0 mph WSW1.6 kmh WSW 2.0 mph3.2 kmh 30.43 in1030.5 mb 0.00 in0.0 mm 0.00 in/hr0.0 mm/hr 0.00 in0.0 mm
06:45 PM 22.8°F-5.1°C 9.1°F-12.7°C 55% 1.0 mph WSW1.6 kmh WSW 3.0 mph4.8 kmh 30.44 in1030.8 mb 0.00 in0.0 mm 0.00 in/hr0.0 mm/hr 0.00 in0.0 mm
06:30 PM 22.4°F-5.3°C 9.1°F-12.7°C 56% 2.0 mph WSW3.2 kmh WSW 5.0 mph8.0 kmh 30.44 in1030.8 mb 0.00 in0.0 mm 0.00 in/hr0.0 mm/hr 0.00 in0.0 mm
06:15 PM 24.3°F-4.3°C 9.2°F-12.7°C 52% 5.0 mph WSW8.0 kmh WSW 6.0 mph9.7 kmh 30.44 in1030.8 mb 0.00 in0.0 mm 0.00 in/hr0.0 mm/hr 0.00 in0.0 mm
06:00 PM 25.7°F-3.5°C 9.7°F-12.4°C 50% 6.0 mph WSW9.7 kmh WSW 8.0 mph12.9 kmh 30.44 in1030.8 mb 0.00 in0.0 mm 0.00 in/hr0.0 mm/hr 0.00 in0.0 mm
05:45 PM 27.2°F-2.7°C 9.7°F-12.4°C 47% 6.0 mph WSW9.7 kmh WSW 9.0 mph14.5 kmh 30.43 in1030.5 mb 0.00 in0.0 mm 0.00 in/hr0.0 mm/hr 0.00 in0.0 mm
05:30 PM 27.8°F-2.3°C 9.2°F-12.7°C 45% 7.0 mph WSW11.3 kmh WSW 10.0 mph16.1 kmh 30.43 in1030.5 mb 0.00 in0.0 mm 0.00 in/hr0.0 mm/hr 0.00 in0.0 mm
05:15 PM 29.3°F-1.5°C 10.1°F-12.2°C 44% 5.0 mph NW8.0 kmh NW 10.0 mph16.1 kmh 30.43 in1030.5 mb 0.00 in0.0 mm 0.00 in/hr0.0 mm/hr 0.00 in0.0 mm
05:00 PM 28.3°F-2.1°C 11.1°F-11.6°C 48% 8.0 mph W12.9 kmh W 12.0 mph19.3 kmh 30.44 in1030.8 mb 0.00 in0.0 mm 0.00 in/hr0.0 mm/hr 0.00 in0.0 mm
04:45 PM 28.1°F-2.2°C 12.3°F-10.9°C 51% 10.0 mph WSW16.1 kmh WSW 11.0 mph17.7 kmh 30.44 in1030.8 mb 0.00 in0.0 mm 0.00 in/hr0.0 mm/hr 0.00 in0.0 mm
04:30 PM 27.7°F-2.4°C 11.9°F-11.2°C 51% 8.0 mph WSW12.9 kmh WSW 12.0 mph19.3 kmh 30.44 in1030.8 mb 0.00 in0.0 mm 0.00 in/hr0.0 mm/hr 0.00 in0.0 mm
04:15 PM 27.7°F-2.4°C 12.8°F-10.7°C 53% 9.0 mph SW14.5 kmh SW 12.0 mph19.3 kmh 30.44 in1030.8 mb 0.00 in0.0 mm 0.00 in/hr0.0 mm/hr 0.00 in0.0 mm
04:00 PM 27.8°F-2.3°C 12.0°F-11.1°C 51% 7.0 mph SW11.3 kmh SW 13.0 mph20.9 kmh 30.44 in1030.8 mb 0.00 in0.0 mm 0.00 in/hr0.0 mm/hr 0.00 in0.0 mm
03:45 PM 28.2°F-2.1°C 12.4°F-10.9°C 51% 6.0 mph W9.7 kmh W 11.0 mph17.7 kmh 30.44 in1030.8 mb 0.00 in0.0 mm 0.00 in/hr0.0 mm/hr 0.00 in0.0 mm
03:30 PM 27.7°F-2.4°C 12.4°F-10.9°C 52% 10.0 mph W16.1 kmh W 14.0 mph22.5 kmh 30.44 in1030.8 mb 0.00 in0.0 mm 0.00 in/hr0.0 mm/hr 0.00 in0.0 mm
03:15 PM 27.5°F-2.5°C 12.2°F-11.0°C 52% 11.0 mph WSW17.7 kmh WSW 16.0 mph25.7 kmh 30.44 in1030.8 mb 0.00 in0.0 mm 0.00 in/hr0.0 mm/hr 0.00 in0.0 mm
03:00 PM 28.7°F-1.8°C 12.0°F-11.1°C 49% 4.0 mph W6.4 kmh W 11.0 mph17.7 kmh 30.44 in1030.8 mb 0.00 in0.0 mm 0.00 in/hr0.0 mm/hr 0.00 in0.0 mm
02:45 PM 27.5°F-2.5°C 12.2°F-11.0°C 52% 10.0 mph WSW16.1 kmh WSW 13.0 mph20.9 kmh 30.44 in1030.8 mb 0.00 in0.0 mm 0.00 in/hr0.0 mm/hr 0.00 in0.0 mm
02:30 PM 28.3°F-2.1°C 11.1°F-11.6°C 48% 6.0 mph WSW9.7 kmh WSW 10.0 mph16.1 kmh 30.44 in1030.8 mb 0.00 in0.0 mm 0.00 in/hr0.0 mm/hr 0.00 in0.0 mm
02:15 PM 26.9°F-2.8°C 12.1°F-11.1°C 53% 8.0 mph WSW12.9 kmh WSW 13.0 mph20.9 kmh 30.44 in1030.8 mb 0.00 in0.0 mm 0.00 in/hr0.0 mm/hr 0.00 in0.0 mm
02:00 PM 26.3°F-3.2°C 12.8°F-10.7°C 56% 6.0 mph SW9.7 kmh SW 14.0 mph22.5 kmh 30.45 in1031.2 mb 0.00 in0.0 mm 0.00 in/hr0.0 mm/hr 0.00 in0.0 mm
01:45 PM 26.3°F-3.2°C 12.3°F-10.9°C 55% 10.0 mph WSW16.1 kmh WSW 16.0 mph25.7 kmh 30.45 in1031.2 mb 0.00 in0.0 mm 0.00 in/hr0.0 mm/hr 0.00 in0.0 mm
01:30 PM 26.0°F-3.3°C 12.1°F-11.1°C 55% 11.0 mph SW17.7 kmh SW 16.0 mph25.7 kmh 30.46 in1031.5 mb 0.00 in0.0 mm 0.00 in/hr0.0 mm/hr 0.00 in0.0 mm
01:15 PM 25.6°F-3.6°C 11.3°F-11.5°C 54% 7.0 mph WSW11.3 kmh WSW 15.0 mph24.1 kmh 30.46 in1031.5 mb 0.00 in0.0 mm 0.00 in/hr0.0 mm/hr 0.00 in0.0 mm
01:00 PM 26.0°F-3.3°C 12.1°F-11.1°C 55% 7.0 mph NW11.3 kmh NW 16.0 mph25.7 kmh 30.46 in1031.5 mb 0.00 in0.0 mm 0.00 in/hr0.0 mm/hr 0.00 in0.0 mm
12:45 PM 25.2°F-3.8°C 11.7°F-11.3°C 56% 5.0 mph WSW8.0 kmh WSW 12.0 mph19.3 kmh 30.46 in1031.5 mb 0.00 in0.0 mm 0.00 in/hr0.0 mm/hr 0.00 in0.0 mm
12:30 PM 25.7°F-3.5°C 12.2°F-11.0°C 56% 7.0 mph WSW11.3 kmh WSW 9.0 mph14.5 kmh 30.46 in1031.5 mb 0.00 in0.0 mm 0.00 in/hr0.0 mm/hr 0.00 in0.0 mm
12:15 PM 24.4°F-4.2°C 12.1°F-11.1°C 59% 9.0 mph WSW14.5 kmh WSW 14.0 mph22.5 kmh 30.46 in1031.5 mb 0.00 in0.0 mm 0.00 in/hr0.0 mm/hr 0.00 in0.0 mm
12:00 PM 25.3°F-3.7°C 12.2°F-11.0°C 57% 10.0 mph NW16.1 kmh NW 14.0 mph22.5 kmh 30.45 in1031.2 mb 0.00 in0.0 mm 0.00 in/hr0.0 mm/hr 0.00 in0.0 mm
11:45 AM 24.9°F-3.9°C 12.2°F-11.0°C 58% 9.0 mph WSW14.5 kmh WSW 12.0 mph19.3 kmh 30.45 in1031.2 mb 0.00 in0.0 mm 0.00 in/hr0.0 mm/hr 0.00 in0.0 mm
11:30 AM 24.7°F-4.1°C 12.4°F-10.9°C 59% 8.0 mph NW12.9 kmh NW 13.0 mph20.9 kmh 30.44 in1030.8 mb 0.00 in0.0 mm 0.00 in/hr0.0 mm/hr 0.00 in0.0 mm
11:15 AM 24.6°F-4.1°C 12.7°F-10.7°C 60% 7.0 mph NNW11.3 kmh NNW 13.0 mph20.9 kmh 30.44 in1030.8 mb 0.00 in0.0 mm 0.00 in/hr0.0 mm/hr 0.00 in0.0 mm
11:00 AM 23.9°F-4.5°C 12.1°F-11.1°C 60% 7.0 mph W11.3 kmh W 10.0 mph16.1 kmh 30.44 in1030.8 mb 0.00 in0.0 mm 0.00 in/hr0.0 mm/hr 0.00 in0.0 mm
10:45 AM 24.3°F-4.3°C 13.2°F-10.4°C 62% 10.0 mph WNW16.1 kmh WNW 15.0 mph24.1 kmh 30.43 in1030.5 mb 0.00 in0.0 mm 0.00 in/hr0.0 mm/hr 0.00 in0.0 mm
10:30 AM 23.7°F-4.6°C 12.2°F-11.0°C 61% 5.0 mph W8.0 kmh W 14.0 mph22.5 kmh 30.43 in1030.5 mb 0.00 in0.0 mm 0.00 in/hr0.0 mm/hr 0.00 in0.0 mm
10:15 AM 23.4°F-4.8°C 12.0°F-11.1°C 61% 11.0 mph WNW17.7 kmh WNW 14.0 mph22.5 kmh 30.43 in1030.5 mb 0.00 in0.0 mm 0.00 in/hr0.0 mm/hr 0.00 in0.0 mm
10:00 AM 23.1°F-4.9°C 11.7°F-11.3°C 61% 8.0 mph NNW12.9 kmh NNW 13.0 mph20.9 kmh 30.43 in1030.5 mb 0.00 in0.0 mm 0.00 in/hr0.0 mm/hr 0.00 in0.0 mm
09:45 AM 22.6°F-5.2°C 13.0°F-10.6°C 66% 7.0 mph NW11.3 kmh NW 11.0 mph17.7 kmh 30.42 in1030.1 mb 0.00 in0.0 mm 0.00 in/hr0.0 mm/hr 0.00 in0.0 mm
09:30 AM 21.8°F-5.7°C 13.2°F-10.4°C 69% 3.0 mph NW4.8 kmh NW 10.0 mph16.1 kmh 30.42 in1030.1 mb 0.00 in0.0 mm 0.00 in/hr0.0 mm/hr 0.00 in0.0 mm
09:15 AM 21.2°F-6.0°C 13.6°F-10.2°C 72% 8.0 mph W12.9 kmh W 12.0 mph19.3 kmh 30.42 in1030.1 mb 0.00 in0.0 mm 0.00 in/hr0.0 mm/hr 0.00 in0.0 mm
09:00 AM 20.2°F-6.6°C 13.6°F-10.2°C 75% 2.0 mph WSW3.2 kmh WSW 11.0 mph17.7 kmh 30.41 in1029.8 mb 0.00 in0.0 mm 0.00 in/hr0.0 mm/hr 0.00 in0.0 mm
08:45 AM 19.3°F-7.1°C 13.3°F-10.4°C 77% 3.0 mph W4.8 kmh W 8.0 mph12.9 kmh 30.40 in1029.5 mb 0.00 in0.0 mm 0.00 in/hr0.0 mm/hr 0.00 in0.0 mm
08:30 AM 18.2°F-7.7°C 13.1°F-10.5°C 80% 4.0 mph W6.4 kmh W 7.0 mph11.3 kmh 30.39 in1029.1 mb 0.00 in0.0 mm 0.00 in/hr0.0 mm/hr 0.00 in0.0 mm
08:15 AM 15.7°F-9.1°C 11.7°F-11.3°C 84% 3.0 mph W4.8 kmh W 8.0 mph12.9 kmh 30.38 in1028.8 mb 0.00 in0.0 mm 0.00 in/hr0.0 mm/hr 0.00 in0.0 mm
08:00 AM 13.9°F-10.1°C 9.2°F-12.7°C 81% 2.0 mph WSW3.2 kmh WSW 3.0 mph4.8 kmh 30.37 in1028.4 mb 0.00 in0.0 mm 0.00 in/hr0.0 mm/hr 0.00 in0.0 mm
07:45 AM 14.3°F-9.8°C 9.3°F-12.6°C 80% 2.0 mph WSW3.2 kmh WSW 4.0 mph6.4 kmh 30.35 in1027.8 mb 0.00 in0.0 mm 0.00 in/hr0.0 mm/hr 0.00 in0.0 mm
07:30 AM 16.4°F-8.7°C 11.3°F-11.5°C 80% 1.0 mph WSW1.6 kmh WSW 3.0 mph4.8 kmh 30.34 in1027.4 mb 0.00 in0.0 mm 0.00 in/hr0.0 mm/hr 0.00 in0.0 mm
07:15 AM 16.7°F-8.5°C 11.9°F-11.2°C 81% 1.0 mph W1.6 kmh W 4.0 mph6.4 kmh 30.33 in1027.1 mb 0.00 in0.0 mm 0.00 in/hr0.0 mm/hr 0.00 in0.0 mm
07:00 AM 17.0°F-8.3°C 11.9°F-11.2°C 80% 2.0 mph W3.2 kmh W 4.0 mph6.4 kmh 30.33 in1027.1 mb 0.00 in0.0 mm 0.00 in/hr0.0 mm/hr 0.00 in0.0 mm
06:45 AM 17.2°F-8.2°C 12.1°F-11.1°C 80% 3.0 mph W4.8 kmh W 5.0 mph8.0 kmh 30.34 in1027.4 mb 0.00 in0.0 mm 0.00 in/hr0.0 mm/hr 0.00 in0.0 mm
06:30 AM 17.4°F-8.1°C 12.0°F-11.1°C 79% 2.0 mph WSW3.2 kmh WSW 4.0 mph6.4 kmh 30.34 in1027.4 mb 0.00 in0.0 mm 0.00 in/hr0.0 mm/hr 0.00 in0.0 mm
06:15 AM 17.7°F-7.9°C 12.3°F-10.9°C 79% 2.0 mph WNW3.2 kmh WNW 5.0 mph8.0 kmh 30.34 in1027.4 mb 0.00 in0.0 mm 0.00 in/hr0.0 mm/hr 0.00 in0.0 mm
06:00 AM 17.8°F-7.9°C 12.4°F-10.9°C 79% 3.0 mph W4.8 kmh W 7.0 mph11.3 kmh 30.33 in1027.1 mb 0.00 in0.0 mm 0.00 in/hr0.0 mm/hr 0.00 in0.0 mm
05:45 AM 17.7°F-7.9°C 12.3°F-10.9°C 79% 3.0 mph W4.8 kmh W 6.0 mph9.7 kmh 30.33 in1027.1 mb 0.00 in0.0 mm 0.00 in/hr0.0 mm/hr 0.00 in0.0 mm
05:30 AM 18.0°F-7.8°C 12.6°F-10.8°C 79% 3.0 mph WNW4.8 kmh WNW 5.0 mph8.0 kmh 30.31 in1026.4 mb 0.00 in0.0 mm 0.00 in/hr0.0 mm/hr 0.00 in0.0 mm
05:15 AM 18.1°F-7.7°C 13.0°F-10.6°C 80% 3.0 mph W4.8 kmh W 8.0 mph12.9 kmh 30.31 in1026.4 mb 0.00 in0.0 mm 0.00 in/hr0.0 mm/hr 0.00 in0.0 mm
05:00 AM 18.1°F-7.7°C 12.7°F-10.7°C 79% 3.0 mph W4.8 kmh W 6.0 mph9.7 kmh 30.30 in1026.1 mb 0.00 in0.0 mm 0.00 in/hr0.0 mm/hr 0.00 in0.0 mm
04:45 AM 18.4°F-7.6°C 13.0°F-10.6°C 79% 2.0 mph WSW3.2 kmh WSW 4.0 mph6.4 kmh 30.29 in1025.7 mb 0.00 in0.0 mm 0.00 in/hr0.0 mm/hr 0.00 in0.0 mm
04:15 AM 19.9°F-6.7°C 13.9°F-10.1°C 77% 1.0 mph W1.6 kmh W 6.0 mph9.7 kmh 30.27 in1025.1 mb 0.00 in0.0 mm 0.00 in/hr0.0 mm/hr 0.00 in0.0 mm
04:00 AM 20.2°F-6.6°C 14.2°F-9.9°C 77% 4.0 mph WNW6.4 kmh WNW 7.0 mph11.3 kmh 30.26 in1024.7 mb 0.00 in0.0 mm 0.00 in/hr0.0 mm/hr 0.00 in0.0 mm
03:45 AM 20.6°F-6.3°C 14.3°F-9.8°C 76% 3.0 mph W4.8 kmh W 6.0 mph9.7 kmh 30.26 in1024.7 mb 0.00 in0.0 mm 0.00 in/hr0.0 mm/hr 0.00 in0.0 mm
03:30 AM 21.2°F-6.0°C 14.8°F-9.6°C 76% 5.0 mph W8.0 kmh W 9.0 mph14.5 kmh 30.26 in1024.7 mb 0.00 in0.0 mm 0.00 in/hr0.0 mm/hr 0.00 in0.0 mm
03:15 AM 21.4°F-5.9°C 15.0°F-9.4°C 76% 6.0 mph WNW9.7 kmh WNW 10.0 mph16.1 kmh 30.26 in1024.7 mb 0.00 in0.0 mm 0.00 in/hr0.0 mm/hr 0.00 in0.0 mm
03:00 AM 21.7°F-5.7°C 15.6°F-9.1°C 77% 3.0 mph WNW4.8 kmh WNW 7.0 mph11.3 kmh 30.25 in1024.4 mb 0.00 in0.0 mm 0.00 in/hr0.0 mm/hr 0.00 in0.0 mm
02:45 AM 21.9°F-5.6°C 17.5°F-8.1°C 83% 4.0 mph NW6.4 kmh NW 7.0 mph11.3 kmh 30.25 in1024.4 mb 0.00 in0.0 mm 0.00 in/hr0.0 mm/hr 0.00 in0.0 mm
02:30 AM 21.7°F-5.7°C 18.7°F-7.4°C 88% 4.0 mph NW6.4 kmh NW 7.0 mph11.3 kmh 30.24 in1024.0 mb 0.00 in0.0 mm 0.00 in/hr0.0 mm/hr 0.00 in0.0 mm
02:15 AM 21.9°F-5.6°C 19.4°F-7.0°C 90% 3.0 mph W4.8 kmh W 6.0 mph9.7 kmh 30.23 in1023.7 mb 0.00 in0.0 mm 0.00 in/hr0.0 mm/hr 0.00 in0.0 mm
02:00 AM 21.8°F-5.7°C 19.3°F-7.1°C 90% 5.0 mph WSW8.0 kmh WSW 8.0 mph12.9 kmh 30.23 in1023.7 mb 0.00 in0.0 mm 0.00 in/hr0.0 mm/hr 0.00 in0.0 mm
01:45 AM 21.9°F-5.6°C 19.2°F-7.1°C 89% 5.0 mph WSW8.0 kmh WSW 7.0 mph11.3 kmh 30.22 in1023.4 mb 0.00 in0.0 mm 0.00 in/hr0.0 mm/hr 0.00 in0.0 mm
01:30 AM 22.0°F-5.6°C 19.0°F-7.2°C 88% 9.0 mph WSW14.5 kmh WSW 10.0 mph16.1 kmh 30.22 in1023.4 mb 0.00 in0.0 mm 0.00 in/hr0.0 mm/hr 0.00 in0.0 mm
01:15 AM 22.0°F-5.6°C 18.7°F-7.4°C 87% 6.0 mph SW9.7 kmh SW 9.0 mph14.5 kmh 30.21 in1023.0 mb 0.00 in0.0 mm 0.00 in/hr0.0 mm/hr 0.00 in0.0 mm
01:00 AM 21.8°F-5.7°C 18.3°F-7.6°C 86% 9.0 mph SW14.5 kmh SW 10.0 mph16.1 kmh 30.20 in1022.7 mb 0.00 in0.0 mm 0.00 in/hr0.0 mm/hr 0.00 in0.0 mm
12:45 AM 21.8°F-5.7°C 18.0°F-7.8°C 85% 6.0 mph SW9.7 kmh SW 10.0 mph16.1 kmh 30.20 in1022.7 mb 0.00 in0.0 mm 0.00 in/hr0.0 mm/hr 0.00 in0.0 mm
12:30 AM 21.5°F-5.8°C 17.4°F-8.1°C 84% 7.0 mph SW11.3 kmh SW 8.0 mph12.9 kmh 30.21 in1023.0 mb 0.00 in0.0 mm 0.00 in/hr0.0 mm/hr 0.00 in0.0 mm
12:15 AM 20.9°F-6.2°C 17.4°F-8.1°C 86% 5.0 mph SW8.0 kmh SW 8.0 mph12.9 kmh 30.21 in1023.0 mb 0.00 in0.0 mm 0.00 in/hr0.0 mm/hr 0.00 in0.0 mm
12:00 AM 18.8°F-7.3°C 15.1°F-9.4°C 85% 3.0 mph SW4.8 kmh SW 4.0 mph6.4 kmh 30.21 in1023.0 mb 0.00 in0.0 mm 0.00 in/hr0.0 mm/hr 0.00 in0.0 mm